»·PEaware :: N221XG KSNA-KSBA

N221XG :: KSNA-KSBA

FLIGHT INFORMATION

Flight Status: Arrived
Operator: Privately registered:
United States
More flights under this callsign
Pilot: Ryan L. (9775)
Aircraft: BEECH AIRCRAFT SUPER KING AIR 350
(B350)
More flights by this aircraft type
Origin: KSNA John Wayne-Orange Co
United States
Destination: KSBA Santa Barbara Mun
United States
More flights between these airports :: More routes between these airports
Route: +SXC V208 VTU VTU282 KWANG
File this flight plan on PilotEdge
Remarks:
Altitude:
(Current/Filed)
8,000ft
Speed:
(Current/Filed)
240kts
Departed: 15-Apr-19 08:03 PM
Arrived: 15-Apr-19 08:42 PM
Distance/Time
Traveled:
108nm/0:39
Distance/Time
To Go:
Arrived

Flight Plot

Page will automatically refresh every two minutes.


Map Options




Map Legend


Flown Route
Filed Route
Departure Airport
Arrival Airport
Navaid (VOR, NDB)
Fix

Horizontal Profiles

Position Reports

Time Latitude Longitude Heading Altitude Ground
Speed
15-Apr-19 19:33 33.671187 -117.874312 208 61ft 0kts
15-Apr-19 19:34 33.671187 -117.874312 208 61ft 0kts
15-Apr-19 19:35 33.671187 -117.874312 208 61ft 0kts
15-Apr-19 19:36 33.671187 -117.874312 208 61ft 0kts
15-Apr-19 19:37 33.671187 -117.874312 208 61ft 0kts
15-Apr-19 19:38 33.671187 -117.874312 208 61ft 0kts
15-Apr-19 19:39 33.671187 -117.874312 208 61ft 0kts
15-Apr-19 19:40 33.671187 -117.874312 208 61ft 0kts
15-Apr-19 19:41 33.671187 -117.874312 208 61ft 0kts
15-Apr-19 19:42 33.671187 -117.874312 208 61ft 0kts
15-Apr-19 19:43 33.671187 -117.874312 208 61ft 0kts
15-Apr-19 19:44 33.671187 -117.874312 208 61ft 0kts
15-Apr-19 19:45 33.671187 -117.874312 208 61ft 0kts
15-Apr-19 19:46 33.671187 -117.874312 208 61ft 0kts
15-Apr-19 19:47 33.671187 -117.874312 208 61ft 0kts
15-Apr-19 19:48 33.671187 -117.874312 208 61ft 0kts
15-Apr-19 19:49 33.671187 -117.874312 208 61ft 0kts
15-Apr-19 19:50 33.670965 -117.874090 113 61ft 4kts
15-Apr-19 19:51 33.670923 -117.873969 112 61ft 0kts
15-Apr-19 19:52 33.670923 -117.873969 112 61ft 0kts
15-Apr-19 19:53 33.670923 -117.873969 112 61ft 0kts
15-Apr-19 19:54 33.670895 -117.873885 110 61ft 2kts
15-Apr-19 19:55 33.672917 -117.872083 28 61ft 17kts
15-Apr-19 19:56 33.676892 -117.869572 27 59ft 13kts
15-Apr-19 19:57 33.680970 -117.867184 30 61ft 12kts
15-Apr-19 19:58 33.681230 -117.866457 116 61ft 0kts
15-Apr-19 19:59 33.681230 -117.866457 116 61ft 0kts
15-Apr-19 20:00 33.681230 -117.866457 116 61ft 0kts
15-Apr-19 20:01 33.681019 -117.865958 117 61ft 4kts
15-Apr-19 20:02 33.669562 -117.872564 209 328ft 119kts
15-Apr-19 20:03 33.633774 -117.879901 184 2319ft 140kts
15-Apr-19 20:04 33.593163 -117.884954 190 4237ft 156kts
15-Apr-19 20:05 33.546421 -117.895277 193 5125ft 188kts
15-Apr-19 20:06 33.493233 -117.909082 196 5481ft 195kts
15-Apr-19 20:07 33.444732 -117.925965 247 7262ft 181kts
15-Apr-19 20:08 33.436120 -117.990058 260 8037ft 223kts
15-Apr-19 20:09 33.425283 -118.067925 260 8023ft 244kts
15-Apr-19 20:11 33.413949 -118.149056 260 8019ft 249kts
15-Apr-19 20:12 33.402358 -118.231603 260 8018ft 251kts
15-Apr-19 20:13 33.390705 -118.314163 260 8016ft 249kts
15-Apr-19 20:14 33.379142 -118.395715 261 7993ft 247kts
15-Apr-19 20:15 33.411608 -118.466029 304 8001ft 247kts
15-Apr-19 20:16 33.453452 -118.531495 309 7997ft 248kts
15-Apr-19 20:17 33.497977 -118.595092 309 7995ft 248kts
15-Apr-19 20:18 33.541500 -118.657762 307 7996ft 248kts
15-Apr-19 20:19 33.585415 -118.721894 308 7997ft 248kts
15-Apr-19 20:20 33.629314 -118.785579 308 8007ft 247kts
15-Apr-19 20:21 33.673096 -118.849390 308 8001ft 248kts
15-Apr-19 20:22 33.717145 -118.913394 308 7991ft 248kts
15-Apr-19 20:23 33.761138 -118.977305 308 7981ft 247kts
15-Apr-19 20:24 33.813869 -119.024948 355 8000ft 250kts
15-Apr-19 20:25 33.883924 -119.028447 352 7974ft 251kts
15-Apr-19 20:26 33.953845 -119.034185 355 7974ft 252kts
15-Apr-19 20:26 34.012392 -119.038800 353 7967ft 252kts
15-Apr-19 20:28 34.093983 -119.047069 352 7969ft 252kts
15-Apr-19 20:29 34.136025 -119.102465 289 7088ft 235kts
15-Apr-19 20:29 34.153657 -119.163453 294 6007ft 225kts
15-Apr-19 20:31 34.189258 -119.235781 301 5653ft 213kts
15-Apr-19 20:32 34.220523 -119.298707 301 6181ft 220kts
15-Apr-19 20:33 34.254229 -119.366923 298 5972ft 242kts
15-Apr-19 20:33 34.276950 -119.429234 295 5967ft 243kts
15-Apr-19 20:35 34.311727 -119.515433 297 5969ft 243kts
15-Apr-19 20:36 34.332719 -119.593221 288 5715ft 238kts
15-Apr-19 20:36 34.347424 -119.653112 288 4818ft 207kts
15-Apr-19 20:37 34.366542 -119.713434 313 3818ft 183kts
15-Apr-19 20:39 34.413159 -119.750183 333 2600ft 166kts
15-Apr-19 20:39 34.428523 -119.786403 270 1100ft 152kts
15-Apr-19 20:40 34.427929 -119.829853 271 148ft 118kts
15-Apr-19 20:41 34.427538 -119.851200 261 18ft 7kts
15-Apr-19 20:42 34.426444 -119.850815 89 18ft 8kts
15-Apr-19 20:43 34.426521 -119.847374 88 18ft 12kts
15-Apr-19 20:44 34.426611 -119.842080 87 18ft 18kts
15-Apr-19 20:45 34.425701 -119.838041 165 18ft 15kts
15-Apr-19 20:46 34.421174 -119.836725 165 18ft 14kts
15-Apr-19 20:47 34.421701 -119.836265 344 18ft 0kts
15-Apr-19 20:48 34.421701 -119.836265 344 18ft 0kts
15-Apr-19 20:49 34.421701 -119.836265 344 18ft 0kts

Navigation Log

Ident Type
Flight plan parsing failed, navigation log unavailable